sensor_id;sensor_type;location;lat;lon;timestamp;pressure;altitude;pressure_sealevel;temperature;humidity
64343;BME280;50675;53.530;-6.312;2023-06-24T00:20:05;101187.59;;;21.94;58.39
64343;BME280;50675;53.530;-6.312;2023-06-24T00:30:30;101187.50;;;21.85;58.37
64343;BME280;50675;53.530;-6.312;2023-06-24T00:37:12;101195.63;;;21.90;58.45
64343;BME280;50675;53.530;-6.312;2023-06-24T00:39:47;101179.16;;;21.76;58.72
64343;BME280;50675;53.530;-6.312;2023-06-24T02:21:24;101186.53;;;21.54;59.33
64343;BME280;50675;53.530;-6.312;2023-06-24T02:54:36;101166.38;;;21.58;59.50
64343;BME280;50675;53.530;-6.312;2023-06-24T04:04:05;101195.88;;;21.80;59.94
64343;BME280;50675;53.530;-6.312;2023-06-24T05:22:59;101200.75;;;22.19;60.42
64343;BME280;50675;53.530;-6.312;2023-06-24T05:36:50;101206.03;;;22.60;60.54
64343;BME280;50675;53.530;-6.312;2023-06-24T05:39:17;101196.19;;;22.67;60.51
64343;BME280;50675;53.530;-6.312;2023-06-24T05:41:43;101203.59;;;22.81;60.55
64343;BME280;50675;53.530;-6.312;2023-06-24T05:44:10;101195.50;;;22.84;60.71
64343;BME280;50675;53.530;-6.312;2023-06-24T05:46:36;101210.34;;;23.05;60.49
64343;BME280;50675;53.530;-6.312;2023-06-24T05:49:03;101197.06;;;23.07;60.83
64343;BME280;50675;53.530;-6.312;2023-06-24T05:51:49;101204.22;;;23.17;60.93
64343;BME280;50675;53.530;-6.312;2023-06-24T05:54:28;101212.72;;;23.38;60.81
64343;BME280;50675;53.530;-6.312;2023-06-24T05:56:53;101207.94;;;23.52;60.82
64343;BME280;50675;53.530;-6.312;2023-06-24T05:59:19;101196.41;;;23.59;60.78
64343;BME280;50675;53.530;-6.312;2023-06-24T06:01:45;101207.28;;;23.64;60.49
64343;BME280;50675;53.530;-6.312;2023-06-24T06:04:11;101211.22;;;23.80;60.50
64343;BME280;50675;53.530;-6.312;2023-06-24T06:06:37;101210.06;;;23.72;60.47
64343;BME280;50675;53.530;-6.312;2023-06-24T06:09:02;101197.06;;;23.73;60.56
64343;BME280;50675;53.530;-6.312;2023-06-24T06:11:28;101191.72;;;23.68;60.31
64343;BME280;50675;53.530;-6.312;2023-06-24T06:13:54;101192.38;;;23.82;60.18
64343;BME280;50675;53.530;-6.312;2023-06-24T06:16:22;101198.22;;;23.89;60.76
64343;BME280;50675;53.530;-6.312;2023-06-24T06:18:49;101210.72;;;23.95;60.57
64343;BME280;50675;53.530;-6.312;2023-06-24T06:21:14;101203.75;;;24.06;60.50
64343;BME280;50675;53.530;-6.312;2023-06-24T06:23:41;101189.94;;;23.97;60.41
64343;BME280;50675;53.530;-6.312;2023-06-24T06:26:06;101202.44;;;24.12;60.15
64343;BME280;50675;53.530;-6.312;2023-06-24T06:28:32;101198.88;;;24.20;60.02
64343;BME280;50675;53.530;-6.312;2023-06-24T06:30:58;101196.13;;;24.29;59.96
64343;BME280;50675;53.530;-6.312;2023-06-24T06:33:24;101196.59;;;24.31;59.94
64343;BME280;50675;53.530;-6.312;2023-06-24T06:35:49;101186.69;;;24.30;60.25
64343;BME280;50675;53.530;-6.312;2023-06-24T06:38:16;101190.28;;;24.30;59.73
64343;BME280;50675;53.530;-6.312;2023-06-24T06:40:42;101194.63;;;24.49;59.88
64343;BME280;50675;53.530;-6.312;2023-06-24T06:43:08;101178.56;;;24.42;59.62
64343;BME280;50675;53.530;-6.312;2023-06-24T06:45:33;101185.66;;;24.60;59.55
64343;BME280;50675;53.530;-6.312;2023-06-24T06:47:59;101192.25;;;24.76;59.36
64343;BME280;50675;53.530;-6.312;2023-06-24T06:50:28;101191.47;;;25.22;59.57
64343;BME280;50675;53.530;-6.312;2023-06-24T06:52:59;101186.56;;;25.78;59.68
64343;BME280;50675;53.530;-6.312;2023-06-24T06:55:26;101196.16;;;26.22;59.17
64343;BME280;50675;53.530;-6.312;2023-06-24T06:57:53;101200.22;;;26.82;59.25
64343;BME280;50675;53.530;-6.312;2023-06-24T07:00:19;101201.09;;;27.31;59.12
64343;BME280;50675;53.530;-6.312;2023-06-24T07:02:44;101195.75;;;27.74;58.44
64343;BME280;50675;53.530;-6.312;2023-06-24T07:05:10;101195.41;;;28.16;58.35
64343;BME280;50675;53.530;-6.312;2023-06-24T07:07:37;101198.38;;;28.66;57.84
64343;BME280;50675;53.530;-6.312;2023-06-24T07:10:06;101211.59;;;29.01;57.42
64343;BME280;50675;53.530;-6.312;2023-06-24T07:12:32;101209.91;;;29.12;57.01
64343;BME280;50675;53.530;-6.312;2023-06-24T07:14:58;101218.69;;;29.45;56.85
64343;BME280;50675;53.530;-6.312;2023-06-24T07:17:29;101208.88;;;29.51;56.45
64343;BME280;50675;53.530;-6.312;2023-06-24T07:20:01;101221.03;;;29.78;56.18
64343;BME280;50675;53.530;-6.312;2023-06-24T07:22:27;101220.50;;;29.88;55.29
64343;BME280;50675;53.530;-6.312;2023-06-24T07:24:57;101228.47;;;30.09;55.08
64343;BME280;50675;53.530;-6.312;2023-06-24T07:27:25;101226.44;;;30.25;54.73
64343;BME280;50675;53.530;-6.312;2023-06-24T07:29:51;101234.19;;;30.35;54.13
64343;BME280;50675;53.530;-6.312;2023-06-24T07:32:17;101240.31;;;30.22;54.06
64343;BME280;50675;53.530;-6.312;2023-06-24T07:34:45;101239.03;;;30.19;53.38
64343;BME280;50675;53.530;-6.312;2023-06-24T07:37:11;101242.94;;;30.15;52.70
64343;BME280;50675;53.530;-6.312;2023-06-24T07:39:37;101243.09;;;30.03;52.31
64343;BME280;50675;53.530;-6.312;2023-06-24T07:42:07;101255.69;;;29.81;51.95
64343;BME280;50675;53.530;-6.312;2023-06-24T07:44:35;101249.44;;;29.68;51.93
64343;BME280;50675;53.530;-6.312;2023-06-24T07:47:06;101249.44;;;29.68;51.37
64343;BME280;50675;53.530;-6.312;2023-06-24T07:49:32;101246.69;;;29.52;51.29
64343;BME280;50675;53.530;-6.312;2023-06-24T07:52:01;101249.88;;;29.70;51.17
64343;BME280;50675;53.530;-6.312;2023-06-24T07:54:27;101237.88;;;29.85;50.94
64343;BME280;50675;53.530;-6.312;2023-06-24T07:56:59;101269.91;;;30.11;50.67
64343;BME280;50675;53.530;-6.312;2023-06-24T07:59:31;101268.75;;;30.31;50.45
64343;BME280;50675;53.530;-6.312;2023-06-24T08:02:00;101263.09;;;30.27;50.13
64343;BME280;50675;53.530;-6.312;2023-06-24T08:04:29;101268.94;;;30.22;49.65
64343;BME280;50675;53.530;-6.312;2023-06-24T08:07:03;101268.47;;;30.17;49.51
64343;BME280;50675;53.530;-6.312;2023-06-24T08:09:32;101254.59;;;30.39;49.28
64343;BME280;50675;53.530;-6.312;2023-06-24T08:11:58;101278.31;;;30.49;48.73
64343;BME280;50675;53.530;-6.312;2023-06-24T08:14:33;101288.38;;;30.54;48.92
64343;BME280;50675;53.530;-6.312;2023-06-24T08:17:07;101285.28;;;30.59;48.40
64343;BME280;50675;53.530;-6.312;2023-06-24T08:19:33;101282.88;;;30.80;48.34
64343;BME280;50675;53.530;-6.312;2023-06-24T08:21:58;101281.16;;;30.95;47.85
64343;BME280;50675;53.530;-6.312;2023-06-24T08:24:27;101286.06;;;30.78;47.90
64343;BME280;50675;53.530;-6.312;2023-06-24T08:26:53;101277.13;;;30.69;47.39
64343;BME280;50675;53.530;-6.312;2023-06-24T08:29:21;101269.94;;;30.30;47.22
64343;BME280;50675;53.530;-6.312;2023-06-24T08:31:50;101286.28;;;30.31;47.17
64343;BME280;50675;53.530;-6.312;2023-06-24T08:34:15;101286.19;;;30.09;46.81
64343;BME280;50675;53.530;-6.312;2023-06-24T08:36:44;101276.13;;;29.69;46.75
64343;BME280;50675;53.530;-6.312;2023-06-24T08:39:12;101280.69;;;29.62;46.40
64343;BME280;50675;53.530;-6.312;2023-06-24T08:41:44;101282.69;;;29.30;46.12
64343;BME280;50675;53.530;-6.312;2023-06-24T08:44:10;101278.72;;;29.15;46.26
64343;BME280;50675;53.530;-6.312;2023-06-24T08:46:36;101281.34;;;29.08;46.21
64343;BME280;50675;53.530;-6.312;2023-06-24T08:49:13;101274.31;;;28.83;46.14
64343;BME280;50675;53.530;-6.312;2023-06-24T08:51:46;101273.41;;;28.79;46.30
64343;BME280;50675;53.530;-6.312;2023-06-24T08:54:17;101276.59;;;28.65;46.21
64343;BME280;50675;53.530;-6.312;2023-06-24T08:56:47;101292.81;;;28.63;46.19
64343;BME280;50675;53.530;-6.312;2023-06-24T08:59:14;101286.03;;;28.48;46.27
64343;BME280;50675;53.530;-6.312;2023-06-24T09:01:47;101275.16;;;28.43;46.25
64343;BME280;50675;53.530;-6.312;2023-06-24T09:04:13;101284.06;;;28.49;46.35
64343;BME280;50675;53.530;-6.312;2023-06-24T09:06:42;101278.69;;;28.28;46.29
64343;BME280;50675;53.530;-6.312;2023-06-24T09:09:19;101276.56;;;28.37;46.18
64343;BME280;50675;53.530;-6.312;2023-06-24T09:11:55;101289.31;;;28.38;46.17
64343;BME280;50675;53.530;-6.312;2023-06-24T09:14:21;101265.97;;;28.27;46.29
64343;BME280;50675;53.530;-6.312;2023-06-24T09:16:55;101275.56;;;28.30;46.15
64343;BME280;50675;53.530;-6.312;2023-06-24T09:19:26;101280.53;;;28.36;46.10
64343;BME280;50675;53.530;-6.312;2023-06-24T09:22:00;101273.53;;;28.42;46.13
64343;BME280;50675;53.530;-6.312;2023-06-24T09:24:33;101268.22;;;28.37;46.17
64343;BME280;50675;53.530;-6.312;2023-06-24T09:27:03;101274.19;;;28.51;46.11
64343;BME280;50675;53.530;-6.312;2023-06-24T09:29:33;101274.09;;;28.48;45.96
64343;BME280;50675;53.530;-6.312;2023-06-24T09:31:59;101274.31;;;28.55;46.09
64343;BME280;50675;53.530;-6.312;2023-06-24T09:34:28;101266.38;;;28.41;46.29
64343;BME280;50675;53.530;-6.312;2023-06-24T09:36:55;101283.00;;;28.53;46.35
64343;BME280;50675;53.530;-6.312;2023-06-24T09:39:22;101279.41;;;28.53;46.40
64343;BME280;50675;53.530;-6.312;2023-06-24T09:41:57;101275.06;;;28.67;46.09
64343;BME280;50675;53.530;-6.312;2023-06-24T09:44:23;101259.34;;;28.59;46.33
64343;BME280;50675;53.530;-6.312;2023-06-24T09:46:49;101270.56;;;28.63;46.02
64343;BME280;50675;53.530;-6.312;2023-06-24T09:49:15;101274.84;;;28.73;45.96
64343;BME280;50675;53.530;-6.312;2023-06-24T09:51:57;101278.06;;;28.75;45.79
64343;BME280;50675;53.530;-6.312;2023-06-24T09:54:27;101277.09;;;28.83;45.99
64343;BME280;50675;53.530;-6.312;2023-06-24T09:56:54;101273.03;;;28.80;45.82
64343;BME280;50675;53.530;-6.312;2023-06-24T09:59:21;101267.69;;;28.87;45.74
64343;BME280;50675;53.530;-6.312;2023-06-24T10:01:52;101268.66;;;28.79;45.68
64343;BME280;50675;53.530;-6.312;2023-06-24T10:04:20;101262.94;;;28.88;45.85
64343;BME280;50675;53.530;-6.312;2023-06-24T10:06:49;101269.94;;;28.97;45.91
64343;BME280;50675;53.530;-6.312;2023-06-24T10:09:15;101266.78;;;28.99;45.48
64343;BME280;50675;53.530;-6.312;2023-06-24T10:11:45;101284.66;;;28.98;45.63
64343;BME280;50675;53.530;-6.312;2023-06-24T10:14:11;101270.00;;;28.85;45.61
64343;BME280;50675;53.530;-6.312;2023-06-24T10:16:37;101278.09;;;29.06;45.41
64343;BME280;50675;53.530;-6.312;2023-06-24T10:19:03;101262.31;;;29.10;45.27
64343;BME280;50675;53.530;-6.312;2023-06-24T10:21:52;101275.06;;;29.11;45.31
64343;BME280;50675;53.530;-6.312;2023-06-24T10:24:51;101269.13;;;29.28;45.24
64343;BME280;50675;53.530;-6.312;2023-06-24T10:27:20;101268.88;;;29.18;45.06
64343;BME280;50675;53.530;-6.312;2023-06-24T10:29:53;101257.09;;;29.24;45.26
64343;BME280;50675;53.530;-6.312;2023-06-24T10:32:22;101267.38;;;29.36;44.94
64343;BME280;50675;53.530;-6.312;2023-06-24T10:34:56;101252.34;;;29.25;45.10
64343;BME280;50675;53.530;-6.312;2023-06-24T10:37:23;101246.69;;;29.37;44.81
64343;BME280;50675;53.530;-6.312;2023-06-24T10:39:57;101258.91;;;29.32;44.70
64343;BME280;50675;53.530;-6.312;2023-06-24T10:42:33;101255.16;;;29.40;44.89
64343;BME280;50675;53.530;-6.312;2023-06-24T10:45:13;101249.41;;;29.33;44.27
64343;BME280;50675;53.530;-6.312;2023-06-24T10:47:44;101260.25;;;29.38;44.78
64343;BME280;50675;53.530;-6.312;2023-06-24T10:50:19;101279.31;;;29.36;44.12
64343;BME280;50675;53.530;-6.312;2023-06-24T10:52:47;101250.28;;;29.37;44.04
64343;BME280;50675;53.530;-6.312;2023-06-24T10:55:17;101252.72;;;29.39;44.05
64343;BME280;50675;53.530;-6.312;2023-06-24T10:57:44;101257.81;;;29.52;43.92
64343;BME280;50675;53.530;-6.312;2023-06-24T11:00:11;101266.09;;;29.49;43.76
64343;BME280;50675;53.530;-6.312;2023-06-24T11:02:37;101259.09;;;29.55;44.07
64343;BME280;50675;53.530;-6.312;2023-06-24T11:05:06;101256.19;;;29.51;43.79
64343;BME280;50675;53.530;-6.312;2023-06-24T11:07:34;101253.78;;;29.50;43.60
64343;BME280;50675;53.530;-6.312;2023-06-24T11:10:05;101248.78;;;29.40;43.65
64343;BME280;50675;53.530;-6.312;2023-06-24T11:12:33;101252.25;;;29.37;43.71
64343;BME280;50675;53.530;-6.312;2023-06-24T11:15:02;101259.25;;;29.46;43.50
64343;BME280;50675;53.530;-6.312;2023-06-24T11:17:28;101247.78;;;29.32;43.42
64343;BME280;50675;53.530;-6.312;2023-06-24T11:19:55;101242.75;;;29.38;43.32
64343;BME280;50675;53.530;-6.312;2023-06-24T11:22:22;101244.81;;;29.25;43.53
64343;BME280;50675;53.530;-6.312;2023-06-24T11:24:48;101244.47;;;29.27;43.55
64343;BME280;50675;53.530;-6.312;2023-06-24T11:27:14;101236.53;;;29.29;43.19
64343;BME280;50675;53.530;-6.312;2023-06-24T11:29:40;101242.59;;;29.31;43.35
64343;BME280;50675;53.530;-6.312;2023-06-24T11:32:09;101238.50;;;29.28;43.21
64343;BME280;50675;53.530;-6.312;2023-06-24T11:34:36;101227.59;;;29.35;43.37
64343;BME280;50675;53.530;-6.312;2023-06-24T11:37:12;101243.28;;;29.43;43.07
64343;BME280;50675;53.530;-6.312;2023-06-24T11:39:38;101225.63;;;29.36;43.42
64343;BME280;50675;53.530;-6.312;2023-06-24T11:42:07;101237.53;;;29.52;43.19
64343;BME280;50675;53.530;-6.312;2023-06-24T11:44:33;101216.06;;;29.52;43.32
64343;BME280;50675;53.530;-6.312;2023-06-24T11:47:06;101237.09;;;29.50;43.26
64343;BME280;50675;53.530;-6.312;2023-06-24T11:49:32;101217.47;;;29.62;43.37
64343;BME280;50675;53.530;-6.312;2023-06-24T11:52:12;101232.22;;;29.63;43.39
64343;BME280;50675;53.530;-6.312;2023-06-24T11:54:40;101234.25;;;29.66;43.25
64343;BME280;50675;53.530;-6.312;2023-06-24T11:57:08;101239.69;;;29.59;43.06
64343;BME280;50675;53.530;-6.312;2023-06-24T11:59:33;101233.38;;;29.62;42.82
64343;BME280;50675;53.530;-6.312;2023-06-24T12:01:59;101226.50;;;29.40;42.87
64343;BME280;50675;53.530;-6.312;2023-06-24T12:04:32;101241.84;;;29.49;42.60
64343;BME280;50675;53.530;-6.312;2023-06-24T12:06:59;101246.25;;;29.50;42.79
64343;BME280;50675;53.530;-6.312;2023-06-24T12:09:25;101232.22;;;29.63;42.77
64343;BME280;50675;53.530;-6.312;2023-06-24T12:11:54;101241.63;;;29.74;42.70
64343;BME280;50675;53.530;-6.312;2023-06-24T12:17:54;101238.56;;;29.79;42.61
64343;BME280;50675;53.530;-6.312;2023-06-24T12:20:48;101229.09;;;29.83;42.39
64343;BME280;50675;53.530;-6.312;2023-06-24T12:23:25;101222.59;;;29.95;42.66
64343;BME280;50675;53.530;-6.312;2023-06-24T12:30:28;101236.84;;;30.09;42.37
64343;BME280;50675;53.530;-6.312;2023-06-24T12:33:13;101215.88;;;29.96;42.39
64343;BME280;50675;53.530;-6.312;2023-06-24T12:36:03;101233.31;;;29.93;42.10
64343;BME280;50675;53.530;-6.312;2023-06-24T12:39:08;101220.34;;;29.85;41.94
64343;BME280;50675;53.530;-6.312;2023-06-24T12:45:10;101221.91;;;29.82;42.00
64343;BME280;50675;53.530;-6.312;2023-06-24T13:33:31;101201.50;;;29.59;41.83
64343;BME280;50675;53.530;-6.312;2023-06-24T13:35:57;101197.63;;;29.64;41.97
64343;BME280;50675;53.530;-6.312;2023-06-24T13:38:22;101197.94;;;29.78;42.03
64343;BME280;50675;53.530;-6.312;2023-06-24T13:40:48;101193.69;;;29.84;41.93
64343;BME280;50675;53.530;-6.312;2023-06-24T13:43:14;101193.44;;;29.89;42.00
64343;BME280;50675;53.530;-6.312;2023-06-24T13:45:40;101183.19;;;29.93;41.88
64343;BME280;50675;53.530;-6.312;2023-06-24T13:48:05;101192.25;;;29.90;42.00
64343;BME280;50675;53.530;-6.312;2023-06-24T13:50:31;101194.09;;;30.02;42.09
64343;BME280;50675;53.530;-6.312;2023-06-24T13:52:57;101184.06;;;29.97;41.97
64343;BME280;50675;53.530;-6.312;2023-06-24T13:55:22;101184.63;;;30.06;42.15
64343;BME280;50675;53.530;-6.312;2023-06-24T13:57:48;101194.31;;;30.12;41.93
64343;BME280;50675;53.530;-6.312;2023-06-24T14:00:15;101189.44;;;30.28;42.46
64343;BME280;50675;53.530;-6.312;2023-06-24T14:02:41;101180.06;;;30.36;41.74
64343;BME280;50675;53.530;-6.312;2023-06-24T14:05:07;101162.69;;;30.24;42.13
64343;BME280;50675;53.530;-6.312;2023-06-24T14:07:34;101163.00;;;30.19;42.08
64343;BME280;50675;53.530;-6.312;2023-06-24T14:09:59;101159.34;;;30.15;41.61
64343;BME280;50675;53.530;-6.312;2023-06-24T14:12:25;101148.19;;;30.15;41.97
64343;BME280;50675;53.530;-6.312;2023-06-24T14:14:51;101159.28;;;30.11;41.85
64343;BME280;50675;53.530;-6.312;2023-06-24T14:17:17;101166.38;;;29.89;41.61
64343;BME280;50675;53.530;-6.312;2023-06-24T14:19:43;101162.06;;;29.92;41.54
64343;BME280;50675;53.530;-6.312;2023-06-24T14:22:09;101153.44;;;29.81;41.81
64343;BME280;50675;53.530;-6.312;2023-06-24T14:24:35;101166.94;;;29.79;41.68
64343;BME280;50675;53.530;-6.312;2023-06-24T14:27:05;101168.63;;;29.84;41.76
64343;BME280;50675;53.530;-6.312;2023-06-24T14:29:31;101154.59;;;29.96;41.93
64343;BME280;50675;53.530;-6.312;2023-06-24T14:31:57;101152.91;;;29.91;41.77
64343;BME280;50675;53.530;-6.312;2023-06-24T14:34:23;101159.25;;;29.73;41.70
64343;BME280;50675;53.530;-6.312;2023-06-24T14:36:48;101129.66;;;29.65;41.51
64343;BME280;50675;53.530;-6.312;2023-06-24T14:39:15;101146.19;;;29.58;41.67
64343;BME280;50675;53.530;-6.312;2023-06-24T14:41:44;101144.56;;;29.56;41.59
64343;BME280;50675;53.530;-6.312;2023-06-24T14:44:10;101141.50;;;29.62;41.67
64343;BME280;50675;53.530;-6.312;2023-06-24T14:46:36;101134.31;;;29.61;41.62
64343;BME280;50675;53.530;-6.312;2023-06-24T14:49:02;101117.19;;;29.59;41.29
64343;BME280;50675;53.530;-6.312;2023-06-24T14:51:27;101132.19;;;29.54;41.46
64343;BME280;50675;53.530;-6.312;2023-06-24T14:53:53;101129.47;;;29.58;41.58
64343;BME280;50675;53.530;-6.312;2023-06-24T14:56:19;101129.25;;;29.66;41.55
64343;BME280;50675;53.530;-6.312;2023-06-24T14:58:44;101130.28;;;29.58;41.32
64343;BME280;50675;53.530;-6.312;2023-06-24T15:01:10;101123.41;;;29.71;41.52
64343;BME280;50675;53.530;-6.312;2023-06-24T15:03:36;101100.16;;;29.44;41.54
64343;BME280;50675;53.530;-6.312;2023-06-24T15:06:01;101112.72;;;29.73;41.21
64343;BME280;50675;53.530;-6.312;2023-06-24T15:08:27;101104.34;;;29.73;41.43
64343;BME280;50675;53.530;-6.312;2023-06-24T15:10:53;101097.38;;;29.83;41.52
64343;BME280;50675;53.530;-6.312;2023-06-24T15:13:18;101093.50;;;29.87;41.48
64343;BME280;50675;53.530;-6.312;2023-06-24T15:15:44;101093.94;;;29.89;41.33
64343;BME280;50675;53.530;-6.312;2023-06-24T15:18:10;101096.75;;;29.89;41.33
64343;BME280;50675;53.530;-6.312;2023-06-24T15:20:36;101100.19;;;30.02;41.73
64343;BME280;50675;53.530;-6.312;2023-06-24T15:23:02;101102.47;;;29.96;41.65
64343;BME280;50675;53.530;-6.312;2023-06-24T15:25:29;101101.72;;;29.99;41.48
64343;BME280;50675;53.530;-6.312;2023-06-24T15:27:54;101107.69;;;29.98;41.65
64343;BME280;50675;53.530;-6.312;2023-06-24T15:30:20;101108.16;;;30.04;41.44
64343;BME280;50675;53.530;-6.312;2023-06-24T15:32:46;101096.94;;;30.00;41.71
64343;BME280;50675;53.530;-6.312;2023-06-24T15:35:12;101104.44;;;29.96;41.75
64343;BME280;50675;53.530;-6.312;2023-06-24T15:37:38;101103.25;;;29.78;41.68
64343;BME280;50675;53.530;-6.312;2023-06-24T15:40:04;101101.53;;;29.89;41.67
64343;BME280;50675;53.530;-6.312;2023-06-24T15:42:30;101091.53;;;29.88;41.56
64343;BME280;50675;53.530;-6.312;2023-06-24T15:44:55;101094.91;;;29.78;41.51
64343;BME280;50675;53.530;-6.312;2023-06-24T15:47:21;101092.63;;;29.64;41.13
64343;BME280;50675;53.530;-6.312;2023-06-24T15:49:47;101093.56;;;29.52;41.63
64343;BME280;50675;53.530;-6.312;2023-06-24T15:52:13;101101.34;;;29.63;41.67
64343;BME280;50675;53.530;-6.312;2023-06-24T15:54:39;101091.53;;;29.49;41.93
64343;BME280;50675;53.530;-6.312;2023-06-24T15:57:05;101084.41;;;29.52;41.50
64343;BME280;50675;53.530;-6.312;2023-06-24T15:59:31;101087.47;;;29.47;41.75
64343;BME280;50675;53.530;-6.312;2023-06-24T16:01:56;101072.34;;;29.44;41.65
64343;BME280;50675;53.530;-6.312;2023-06-24T16:04:22;101074.31;;;29.44;41.75
64343;BME280;50675;53.530;-6.312;2023-06-24T16:06:47;101076.00;;;29.48;41.59
64343;BME280;50675;53.530;-6.312;2023-06-24T16:09:13;101071.59;;;29.47;41.85
64343;BME280;50675;53.530;-6.312;2023-06-24T16:11:39;101058.19;;;29.53;41.82
64343;BME280;50675;53.530;-6.312;2023-06-24T16:14:05;101051.28;;;29.47;41.85
64343;BME280;50675;53.530;-6.312;2023-06-24T16:16:30;101054.25;;;29.54;42.01
64343;BME280;50675;53.530;-6.312;2023-06-24T16:18:56;101051.47;;;29.54;41.87
64343;BME280;50675;53.530;-6.312;2023-06-24T16:21:21;101044.19;;;29.69;42.06
64343;BME280;50675;53.530;-6.312;2023-06-24T16:23:47;101047.56;;;29.59;42.02
64343;BME280;50675;53.530;-6.312;2023-06-24T16:26:18;101031.38;;;29.64;41.79
64343;BME280;50675;53.530;-6.312;2023-06-24T16:28:44;101042.34;;;29.76;41.80
64343;BME280;50675;53.530;-6.312;2023-06-24T16:31:11;101030.63;;;29.67;41.67
64343;BME280;50675;53.530;-6.312;2023-06-24T16:33:36;101033.47;;;29.71;42.00
64343;BME280;50675;53.530;-6.312;2023-06-24T16:36:02;101028.94;;;29.82;41.83
64343;BME280;50675;53.530;-6.312;2023-06-24T16:38:27;101019.09;;;29.88;41.76
64343;BME280;50675;53.530;-6.312;2023-06-24T16:40:53;101009.72;;;29.96;41.98
64343;BME280;50675;53.530;-6.312;2023-06-24T16:43:19;101001.00;;;29.97;42.14
64343;BME280;50675;53.530;-6.312;2023-06-24T16:45:44;100983.53;;;30.01;42.09
64343;BME280;50675;53.530;-6.312;2023-06-24T16:48:10;100994.31;;;30.02;41.46
64343;BME280;50675;53.530;-6.312;2023-06-24T16:50:36;101000.16;;;29.93;41.67
64343;BME280;50675;53.530;-6.312;2023-06-24T16:53:02;100995.50;;;29.82;41.86
64343;BME280;50675;53.530;-6.312;2023-06-24T16:55:27;100988.47;;;29.88;41.86
64343;BME280;50675;53.530;-6.312;2023-06-24T16:57:53;100986.31;;;30.01;41.76
64343;BME280;50675;53.530;-6.312;2023-06-24T17:00:19;100981.19;;;30.03;42.04
64343;BME280;50675;53.530;-6.312;2023-06-24T17:02:44;100977.25;;;29.84;41.99
64343;BME280;50675;53.530;-6.312;2023-06-24T17:05:10;100957.69;;;29.58;42.05
64343;BME280;50675;53.530;-6.312;2023-06-24T17:07:36;100966.84;;;29.59;41.89
64343;BME280;50675;53.530;-6.312;2023-06-24T17:10:02;100965.09;;;29.50;41.72
64343;BME280;50675;53.530;-6.312;2023-06-24T17:12:28;100966.19;;;29.27;42.13
64343;BME280;50675;53.530;-6.312;2023-06-24T17:14:53;100963.31;;;29.23;41.58
64343;BME280;50675;53.530;-6.312;2023-06-24T17:17:19;100957.75;;;29.04;41.77
64343;BME280;50675;53.530;-6.312;2023-06-24T17:19:44;100952.47;;;28.99;41.74
64343;BME280;50675;53.530;-6.312;2023-06-24T17:22:10;100961.56;;;28.96;41.71
64343;BME280;50675;53.530;-6.312;2023-06-24T17:24:36;100952.56;;;28.83;41.64
64343;BME280;50675;53.530;-6.312;2023-06-24T17:27:01;100953.94;;;28.74;41.85
64343;BME280;50675;53.530;-6.312;2023-06-24T17:29:27;100952.09;;;28.81;41.76
64343;BME280;50675;53.530;-6.312;2023-06-24T17:31:53;100938.75;;;28.71;41.92
64343;BME280;50675;53.530;-6.312;2023-06-24T17:34:18;100943.81;;;28.85;42.14
64343;BME280;50675;53.530;-6.312;2023-06-24T17:36:44;100920.72;;;28.81;42.16
64343;BME280;50675;53.530;-6.312;2023-06-24T17:39:09;100929.72;;;28.74;42.23
64343;BME280;50675;53.530;-6.312;2023-06-24T17:41:35;100937.25;;;28.74;42.12
64343;BME280;50675;53.530;-6.312;2023-06-24T17:44:01;100936.91;;;28.59;42.37
64343;BME280;50675;53.530;-6.312;2023-06-24T17:46:26;100939.88;;;28.51;42.44
64343;BME280;50675;53.530;-6.312;2023-06-24T17:48:52;100943.03;;;28.34;42.26
64343;BME280;50675;53.530;-6.312;2023-06-24T17:51:18;100935.97;;;28.20;42.46
64343;BME280;50675;53.530;-6.312;2023-06-24T17:53:44;100932.56;;;27.96;43.00
64343;BME280;50675;53.530;-6.312;2023-06-24T17:56:09;100919.38;;;27.77;43.02
64343;BME280;50675;53.530;-6.312;2023-06-24T17:58:35;100927.91;;;27.84;42.71
64343;BME280;50675;53.530;-6.312;2023-06-24T18:01:01;100930.75;;;27.72;42.85
64343;BME280;50675;53.530;-6.312;2023-06-24T18:03:26;100934.88;;;27.62;43.00
64343;BME280;50675;53.530;-6.312;2023-06-24T18:05:52;100932.41;;;27.45;43.16
64343;BME280;50675;53.530;-6.312;2023-06-24T18:08:18;100927.91;;;27.40;43.55
64343;BME280;50675;53.530;-6.312;2023-06-24T18:10:45;100917.00;;;27.32;43.58
64343;BME280;50675;53.530;-6.312;2023-06-24T18:13:10;100935.03;;;27.26;43.55
64343;BME280;50675;53.530;-6.312;2023-06-24T18:15:36;100939.88;;;27.29;44.09
64343;BME280;50675;53.530;-6.312;2023-06-24T18:18:01;100927.53;;;26.98;43.85
64343;BME280;50675;53.530;-6.312;2023-06-24T18:20:27;100916.72;;;27.09;44.00
64343;BME280;50675;53.530;-6.312;2023-06-24T18:22:53;100921.66;;;26.88;44.47
64343;BME280;50675;53.530;-6.312;2023-06-24T18:25:19;100906.13;;;26.59;44.59
64343;BME280;50675;53.530;-6.312;2023-06-24T18:27:44;100893.50;;;26.62;44.93
64343;BME280;50675;53.530;-6.312;2023-06-24T18:30:10;100925.75;;;26.54;44.63
64343;BME280;50675;53.530;-6.312;2023-06-24T18:32:36;100921.50;;;26.44;44.74
64343;BME280;50675;53.530;-6.312;2023-06-24T18:35:02;100913.09;;;26.41;44.98
64343;BME280;50675;53.530;-6.312;2023-06-24T18:37:28;100922.56;;;26.28;45.40
64343;BME280;50675;53.530;-6.312;2023-06-24T18:39:56;100929.03;;;26.32;45.03
64343;BME280;50675;53.530;-6.312;2023-06-24T18:42:22;100914.00;;;26.21;45.51
64343;BME280;50675;53.530;-6.312;2023-06-24T18:44:48;100923.72;;;26.27;45.45
64343;BME280;50675;53.530;-6.312;2023-06-24T18:47:14;100918.84;;;26.11;45.68
64343;BME280;50675;53.530;-6.312;2023-06-24T18:49:40;100930.28;;;26.22;45.53
64343;BME280;50675;53.530;-6.312;2023-06-24T18:52:07;100913.09;;;26.29;45.53
64343;BME280;50675;53.530;-6.312;2023-06-24T18:54:32;100915.63;;;26.22;45.51
64343;BME280;50675;53.530;-6.312;2023-06-24T18:56:58;100909.72;;;26.47;45.77